Time;durP1;ratioP1;P1;durP2;ratioP2;P2;SDS_P1;SDS_P2;PMS_P1;PMS_P2;Temp;Humidity;BMP_temperature;BMP_pressure;BME280_temperature;BME280_humidity;BME280_pressure;Samples;Min_cycle;Max_cycle;Signal;HPM_P1;HPM_P2
2023/04/04 00:01:06;;;;;;;3.40;3.15;;;;;;;;;;4966282;28;20206;-45
2023/04/04 00:03:32;;;;;;;3.88;3.38;;;;;;;;;;4968151;28;20681;-45
2023/04/04 00:05:58;;;;;;;4.68;3.50;;;;;;;;;;4974185;28;20174;-42
2023/04/04 00:08:24;;;;;;;3.63;3.33;;;;;;;;;;4964415;28;20178;-43
2023/04/04 00:10:50;;;;;;;4.85;3.75;;;;;;;;;;4963749;28;21026;-43
2023/04/04 00:13:16;;;;;;;5.38;3.83;;;;;;;;;;4963635;28;20186;-44
2023/04/04 00:15:42;;;;;;;5.35;3.20;;;;;;;;;;4967429;28;20182;-43
2023/04/04 00:18:08;;;;;;;5.33;3.90;;;;;;;;;;4962410;28;20182;-43
2023/04/04 00:20:34;;;;;;;7.07;4.67;;;;;;;;;;4962761;28;20465;-44
2023/04/04 00:23:00;;;;;;;5.43;4.70;;;;;;;;;;4963916;28;20410;-43
2023/04/04 00:25:26;;;;;;;5.23;3.80;;;;;;;;;;4963851;28;20174;-44
2023/04/04 00:27:52;;;;;;;4.53;3.67;;;;;;;;;;4964105;28;20433;-43
2023/04/04 00:30:18;;;;;;;7.20;3.40;;;;;;;;;;4967766;28;20476;-43
2023/04/04 00:32:44;;;;;;;4.82;3.53;;;;;;;;;;4966751;28;20944;-42
2023/04/04 00:35:10;;;;;;;6.93;4.30;;;;;;;;;;4960927;28;20187;-43
2023/04/04 00:37:36;;;;;;;4.10;3.60;;;;;;;;;;4960824;28;20407;-43
2023/04/04 00:40:03;;;;;;;6.07;4.80;;;;;;;;;;4965081;28;20433;-43
2023/04/04 00:42:29;;;;;;;4.00;3.60;;;;;;;;;;4966671;28;20166;-43
2023/04/04 00:44:55;;;;;;;3.83;3.37;;;;;;;;;;4961996;28;20705;-43
2023/04/04 00:47:22;;;;;;;5.00;4.60;;;;;;;;;;4965883;28;20925;-43
2023/04/04 00:49:48;;;;;;;6.18;4.10;;;;;;;;;;4964670;28;20487;-45
2023/04/04 00:52:14;;;;;;;5.90;3.60;;;;;;;;;;4959030;28;20192;-43
2023/04/04 00:54:40;;;;;;;5.20;3.50;;;;;;;;;;4965091;28;20417;-43
2023/04/04 00:57:06;;;;;;;5.18;3.45;;;;;;;;;;4965441;28;20417;-43
2023/04/04 00:59:32;;;;;;;3.85;3.45;;;;;;;;;;4964326;28;20230;-43
2023/04/04 01:01:59;;;;;;;4.55;3.70;;;;;;;;;;4962432;28;20699;-43
2023/04/04 01:04:25;;;;;;;12.45;4.60;;;;;;;;;;4959851;28;20190;-43
2023/04/04 01:06:51;;;;;;;6.57;4.40;;;;;;;;;;4951201;28;20321;-44
2023/04/04 01:09:18;;;;;;;7.15;4.50;;;;;;;;;;4962674;28;20962;-42
2023/04/04 01:11:44;;;;;;;6.28;4.22;;;;;;;;;;4962321;28;20276;-43
2023/04/04 01:14:10;;;;;;;6.97;4.60;;;;;;;;;;4962766;28;20232;-43
2023/04/04 01:16:36;;;;;;;5.60;4.15;;;;;;;;;;4961822;28;20202;-43
2023/04/04 01:19:02;;;;;;;5.95;4.28;;;;;;;;;;4964290;28;20198;-44
2023/04/04 01:21:29;;;;;;;5.28;4.40;;;;;;;;;;4962555;28;20206;-44
2023/04/04 01:23:58;;;;;;;7.65;5.80;;;;;;;;;;4966782;28;20181;-43
2023/04/04 01:26:25;;;;;;;13.38;7.10;;;;;;;;;;4963253;28;20177;-43
2023/04/04 01:28:51;;;;;;;7.32;5.47;;;;;;;;;;4962629;28;20566;-43
2023/04/04 01:31:20;;;;;;;14.30;5.78;;;;;;;;;;4967089;28;20289;-42
2023/04/04 01:33:52;;;;;;;8.98;5.30;;;;;;;;;;4966000;28;20169;-43
2023/04/04 01:36:22;;;;;;;10.43;5.45;;;;;;;;;;4952751;28;20174;-44
2023/04/04 01:38:59;;;;;;;5.18;4.55;;;;;;;;;;4958276;28;20262;-43
2023/04/04 01:41:26;;;;;;;9.88;5.57;;;;;;;;;;4959044;28;20283;-43
2023/04/04 01:43:52;;;;;;;5.65;4.97;;;;;;;;;;4962918;28;20264;-44
2023/04/04 01:46:18;;;;;;;8.60;5.43;;;;;;;;;;4960394;28;20245;-44
2023/04/04 01:48:47;;;;;;;9.20;4.57;;;;;;;;;;4962250;28;20182;-44
2023/04/04 01:51:13;;;;;;;4.70;4.30;;;;;;;;;;4964055;28;20202;-43
2023/04/04 01:53:39;;;;;;;6.40;5.80;;;;;;;;;;4961211;28;20588;-43
2023/04/04 01:56:05;;;;;;;5.43;3.87;;;;;;;;;;4963629;28;20181;-43
2023/04/04 01:58:31;;;;;;;4.30;3.90;;;;;;;;;;4964752;28;20448;-43
2023/04/04 02:00:57;;;;;;;5.28;4.65;;;;;;;;;;4961185;28;20445;-42
2023/04/04 02:03:23;;;;;;;13.10;4.90;;;;;;;;;;4962874;28;20185;-43
2023/04/04 02:05:49;;;;;;;7.73;5.00;;;;;;;;;;4962098;28;20184;-45
2023/04/04 02:08:15;;;;;;;7.90;5.13;;;;;;;;;;4962174;28;20425;-45
2023/04/04 02:10:41;;;;;;;8.63;5.13;;;;;;;;;;4961597;28;20481;-43
2023/04/04 02:13:07;;;;;;;10.03;5.07;;;;;;;;;;4967235;28;20405;-43
2023/04/04 02:15:34;;;;;;;9.63;6.55;;;;;;;;;;4960843;28;20420;-43
2023/04/04 02:18:00;;;;;;;6.68;5.60;;;;;;;;;;4962761;28;20200;-44
2023/04/04 02:20:26;;;;;;;7.18;5.25;;;;;;;;;;4963597;28;20202;-45
2023/04/04 02:22:53;;;;;;;5.80;4.72;;;;;;;;;;4962052;28;20229;-45
2023/04/04 02:25:19;;;;;;;6.90;5.03;;;;;;;;;;4965141;28;20177;-44
2023/04/04 02:27:45;;;;;;;5.72;4.85;;;;;;;;;;4963101;28;20209;-43
2023/04/04 02:30:12;;;;;;;9.10;5.60;;;;;;;;;;4965132;28;20258;-44
2023/04/04 02:32:38;;;;;;;8.73;6.20;;;;;;;;;;4962767;28;20412;-43
2023/04/04 02:35:04;;;;;;;11.50;5.50;;;;;;;;;;4957671;28;20718;-44
2023/04/04 02:37:30;;;;;;;9.10;4.88;;;;;;;;;;4964612;28;20541;-43
2023/04/04 02:39:56;;;;;;;10.00;5.47;;;;;;;;;;4962171;28;20205;-43
2023/04/04 02:42:22;;;;;;;7.23;4.93;;;;;;;;;;4964449;28;20496;-44
2023/04/04 02:44:48;;;;;;;8.33;6.10;;;;;;;;;;4960615;28;20410;-44
2023/04/04 02:47:15;;;;;;;9.17;4.90;;;;;;;;;;4963862;28;20413;-44
2023/04/04 02:49:41;;;;;;;6.88;5.68;;;;;;;;;;4960723;28;20472;-43
2023/04/04 02:52:07;;;;;;;5.57;4.97;;;;;;;;;;4962661;28;20178;-43
2023/04/04 02:54:33;;;;;;;5.15;4.65;;;;;;;;;;4964313;28;20405;-42
2023/04/04 02:56:59;;;;;;;7.63;5.10;;;;;;;;;;4962689;28;20540;-44
2023/04/04 02:59:25;;;;;;;9.32;6.18;;;;;;;;;;4961922;28;20915;-43
2023/04/04 03:01:51;;;;;;;6.77;5.33;;;;;;;;;;4961946;28;20190;-43
2023/04/04 03:04:18;;;;;;;6.43;5.10;;;;;;;;;;4960594;28;20426;-44
2023/04/04 03:06:44;;;;;;;9.15;5.72;;;;;;;;;;4963745;28;20516;-43
2023/04/04 03:09:10;;;;;;;11.05;5.97;;;;;;;;;;4958209;28;20209;-43
2023/04/04 03:11:36;;;;;;;6.88;5.40;;;;;;;;;;4958392;28;20654;-43
2023/04/04 03:14:02;;;;;;;6.63;5.80;;;;;;;;;;4962999;28;20186;-43
2023/04/04 03:16:30;;;;;;;9.10;5.60;;;;;;;;;;4958660;28;20880;-44
2023/04/04 03:18:56;;;;;;;8.05;5.32;;;;;;;;;;4960674;28;20879;-43
2023/04/04 03:21:22;;;;;;;8.40;6.07;;;;;;;;;;4960774;28;20198;-43
2023/04/04 03:23:47;;;;;;;7.23;5.80;;;;;;;;;;4962865;28;20694;-43
2023/04/04 03:26:14;;;;;;;10.70;5.87;;;;;;;;;;4956802;28;20468;-43
2023/04/04 03:28:40;;;;;;;11.50;6.32;;;;;;;;;;4964531;28;20491;-43
2023/04/04 03:31:06;;;;;;;8.77;5.57;;;;;;;;;;4965045;28;20197;-43
2023/04/04 03:33:36;;;;;;;8.15;5.88;;;;;;;;;;4966083;28;20166;-43
2023/04/04 03:36:02;;;;;;;5.80;5.20;;;;;;;;;;4966492;28;20254;-43
2023/04/04 03:38:28;;;;;;;7.60;5.40;;;;;;;;;;4964824;28;20257;-43
2023/04/04 03:41:02;;;;;;;7.77;5.77;;;;;;;;;;4964676;28;20436;-42
2023/04/04 03:43:28;;;;;;;8.80;6.95;;;;;;;;;;4964654;28;20918;-42
2023/04/04 03:45:54;;;;;;;12.50;6.88;;;;;;;;;;4966160;28;20186;-42
2023/04/04 03:48:20;;;;;;;7.93;6.13;;;;;;;;;;4969877;28;20186;-43
2023/04/04 03:50:46;;;;;;;11.18;6.18;;;;;;;;;;4961887;28;20836;-43
2023/04/04 03:53:12;;;;;;;9.70;6.80;;;;;;;;;;4958700;28;20178;-42
2023/04/04 03:55:41;;;;;;;13.37;7.07;;;;;;;;;;4956653;28;20653;-42
2023/04/04 03:58:07;;;;;;;8.05;6.65;;;;;;;;;;4964471;28;20921;-42
2023/04/04 04:00:33;;;;;;;8.63;6.20;;;;;;;;;;4958853;28;20234;-42
2023/04/04 04:02:59;;;;;;;9.57;6.90;;;;;;;;;;4965424;28;20914;-43
2023/04/04 04:05:25;;;;;;;8.48;7.18;;;;;;;;;;4967900;28;20454;-42
2023/04/04 04:07:51;;;;;;;11.07;7.30;;;;;;;;;;4967577;28;20610;-43
2023/04/04 04:10:17;;;;;;;11.73;7.18;;;;;;;;;;4961640;28;20972;-43
2023/04/04 04:12:43;;;;;;;8.65;6.45;;;;;;;;;;4964381;28;20238;-43
2023/04/04 04:15:10;;;;;;;18.73;8.40;;;;;;;;;;4966691;28;20190;-43
2023/04/04 04:17:39;;;;;;;12.60;7.65;;;;;;;;;;4964675;28;20425;-43
2023/04/04 04:20:06;;;;;;;10.13;6.85;;;;;;;;;;4965120;28;20229;-43
2023/04/04 04:22:32;;;;;;;9.52;7.15;;;;;;;;;;4963871;28;20724;-42
2023/04/04 04:24:58;;;;;;;10.23;7.57;;;;;;;;;;4965955;28;20181;-43
2023/04/04 04:27:24;;;;;;;7.53;6.83;;;;;;;;;;4961024;28;20421;-43
2023/04/04 04:29:50;;;;;;;18.27;7.70;;;;;;;;;;4966764;28;20530;-43
2023/04/04 04:32:16;;;;;;;12.63;7.68;;;;;;;;;;4964510;28;20410;-43
2023/04/04 04:34:42;;;;;;;13.75;8.05;;;;;;;;;;4963692;28;20185;-42
2023/04/04 04:37:08;;;;;;;10.55;7.75;;;;;;;;;;4965710;28;20175;-43
2023/04/04 04:39:35;;;;;;;10.60;6.83;;;;;;;;;;4963555;28;20555;-44
2023/04/04 04:42:01;;;;;;;9.27;8.02;;;;;;;;;;4962989;28;20424;-43
2023/04/04 04:44:27;;;;;;;12.65;7.45;;;;;;;;;;4963664;28;20179;-43
2023/04/04 04:46:53;;;;;;;11.43;8.10;;;;;;;;;;4966036;28;20183;-42
2023/04/04 04:49:19;;;;;;;15.80;9.93;;;;;;;;;;4962947;28;21027;-43
2023/04/04 04:51:45;;;;;;;14.43;7.40;;;;;;;;;;4961465;28;20830;-43
2023/04/04 04:54:11;;;;;;;9.15;7.35;;;;;;;;;;4963986;28;20468;-42
2023/04/04 04:56:37;;;;;;;9.87;7.63;;;;;;;;;;4963530;28;20171;-43
2023/04/04 04:59:05;;;;;;;7.40;6.70;;;;;;;;;;4965018;28;20418;-43
2023/04/04 05:01:31;;;;;;;11.32;7.32;;;;;;;;;;4966195;28;20438;-43
2023/04/04 05:03:57;;;;;;;14.80;7.47;;;;;;;;;;4966919;28;20200;-42
2023/04/04 05:06:23;;;;;;;13.68;8.25;;;;;;;;;;4962050;28;20441;-43
2023/04/04 05:08:49;;;;;;;10.00;7.90;;;;;;;;;;4959011;28;20206;-45
2023/04/04 05:11:15;;;;;;;21.35;8.15;;;;;;;;;;4966213;28;20484;-43
2023/04/04 05:13:41;;;;;;;13.80;8.40;;;;;;;;;;4958730;28;20181;-43
2023/04/04 05:16:07;;;;;;;10.93;8.77;;;;;;;;;;4965380;28;20764;-44
2023/04/04 05:18:33;;;;;;;9.93;7.85;;;;;;;;;;4964407;28;20414;-43
2023/04/04 05:20:59;;;;;;;16.30;8.50;;;;;;;;;;4965103;28;20209;-43
2023/04/04 05:23:26;;;;;;;18.20;9.17;;;;;;;;;;4960528;28;20852;-44
2023/04/04 05:25:52;;;;;;;20.08;10.43;;;;;;;;;;4965805;28;20633;-44
2023/04/04 05:28:19;;;;;;;12.95;9.30;;;;;;;;;;4964081;28;20185;-44
2023/04/04 05:30:45;;;;;;;18.02;8.90;;;;;;;;;;4962315;28;20217;-43
2023/04/04 05:33:11;;;;;;;15.87;9.53;;;;;;;;;;4965069;28;20166;-43
2023/04/04 05:35:37;;;;;;;9.10;7.53;;;;;;;;;;4962742;28;20410;-43
2023/04/04 05:38:03;;;;;;;10.25;8.23;;;;;;;;;;4963264;28;20409;-43
2023/04/04 05:40:29;;;;;;;13.30;8.50;;;;;;;;;;4962307;28;20206;-43
2023/04/04 05:42:56;;;;;;;13.35;7.30;;;;;;;;;;4968006;28;20510;-44
2023/04/04 05:45:22;;;;;;;13.90;9.18;;;;;;;;;;4960138;28;20174;-43
2023/04/04 05:47:48;;;;;;;11.40;8.50;;;;;;;;;;4962294;28;20261;-43
2023/04/04 05:50:14;;;;;;;11.83;10.57;;;;;;;;;;4963029;28;20465;-43
2023/04/04 05:52:40;;;;;;;19.60;10.02;;;;;;;;;;4962107;28;20906;-43
2023/04/04 05:55:07;;;;;;;25.77;12.80;;;;;;;;;;4961617;28;20548;-43
2023/04/04 05:57:33;;;;;;;12.65;8.20;;;;;;;;;;4961667;28;20205;-43
2023/04/04 05:59:59;;;;;;;9.40;8.48;;;;;;;;;;4966137;28;20244;-43
2023/04/04 06:02:25;;;;;;;11.57;8.20;;;;;;;;;;4961286;28;20221;-43
2023/04/04 06:07:21;;;;;;;6.78;6.13;;;;;;;;;;5005554;28;20303;-49
2023/04/04 06:09:50;;;;;;;11.10;7.57;;;;;;;;;;5011480;28;20283;-50
2023/04/04 06:12:16;;;;;;;15.00;7.93;;;;;;;;;;5010294;28;20502;-49
2023/04/04 06:14:42;;;;;;;11.27;8.00;;;;;;;;;;4997612;28;20276;-49
2023/04/04 06:17:08;;;;;;;17.70;10.97;;;;;;;;;;5010238;28;20427;-49
2023/04/04 06:19:34;;;;;;;13.67;7.63;;;;;;;;;;5011978;28;20568;-49
2023/04/04 06:22:00;;;;;;;13.25;8.45;;;;;;;;;;5011969;28;20422;-49
2023/04/04 06:24:26;;;;;;;9.50;7.25;;;;;;;;;;5009264;28;20600;-49
2023/04/04 06:26:52;;;;;;;12.07;7.50;;;;;;;;;;5009053;28;20283;-50
2023/04/04 06:29:18;;;;;;;12.60;9.07;;;;;;;;;;5012016;28;20459;-50
2023/04/04 06:31:44;;;;;;;9.00;7.63;;;;;;;;;;5010884;28;20404;-50
2023/04/04 06:34:11;;;;;;;12.35;8.98;;;;;;;;;;5012015;28;20930;-50
2023/04/04 06:36:37;;;;;;;14.13;8.50;;;;;;;;;;5011283;28;20233;-50
2023/04/04 06:39:03;;;;;;;16.73;8.77;;;;;;;;;;5011266;28;20207;-50
2023/04/04 06:41:29;;;;;;;14.60;8.38;;;;;;;;;;5011184;28;20411;-49
2023/04/04 06:43:55;;;;;;;13.97;9.20;;;;;;;;;;5010283;28;20210;-49
2023/04/04 06:46:21;;;;;;;15.27;8.33;;;;;;;;;;5007419;28;20447;-50
2023/04/04 06:48:47;;;;;;;13.23;9.18;;;;;;;;;;5007010;28;20481;-50
2023/04/04 06:51:13;;;;;;;10.90;8.05;;;;;;;;;;5010902;28;20176;-50
2023/04/04 06:53:39;;;;;;;15.77;9.63;;;;;;;;;;5011117;28;20185;-50
2023/04/04 06:56:05;;;;;;;17.67;9.63;;;;;;;;;;5010051;28;20431;-50
2023/04/04 06:58:31;;;;;;;27.17;11.32;;;;;;;;;;5009934;28;20415;-50
2023/04/04 07:00:58;;;;;;;14.87;9.33;;;;;;;;;;5008026;28;20185;-49
2023/04/04 07:03:25;;;;;;;11.82;9.35;;;;;;;;;;5011014;28;20419;-50
2023/04/04 07:05:51;;;;;;;11.55;8.20;;;;;;;;;;5014862;28;20207;-50
2023/04/04 07:08:17;;;;;;;12.60;8.60;;;;;;;;;;5015225;28;20242;-50
2023/04/04 07:10:43;;;;;;;13.63;7.90;;;;;;;;;;5013554;28;20458;-49
2023/04/04 07:13:10;;;;;;;10.33;6.70;;;;;;;;;;5014259;28;20184;-50
2023/04/04 07:15:36;;;;;;;14.82;8.82;;;;;;;;;;5010546;28;20443;-50
2023/04/04 07:18:01;;;;;;;10.13;7.30;;;;;;;;;;5009532;28;20199;-50
2023/04/04 07:20:27;;;;;;;12.07;6.80;;;;;;;;;;5015328;28;20407;-50
2023/04/04 07:22:54;;;;;;;12.73;7.87;;;;;;;;;;5015437;28;20401;-50
2023/04/04 07:25:20;;;;;;;8.23;6.77;;;;;;;;;;5008084;28;20426;-48
2023/04/04 07:27:46;;;;;;;6.57;5.87;;;;;;;;;;5014466;28;20407;-48
2023/04/04 07:30:12;;;;;;;7.17;6.47;;;;;;;;;;5014970;28;20973;-49
2023/04/04 07:32:38;;;;;;;9.07;6.23;;;;;;;;;;5015261;28;20825;-49
2023/04/04 07:35:05;;;;;;;16.10;7.30;;;;;;;;;;5015164;28;20422;-48
2023/04/04 07:37:32;;;;;;;7.60;5.80;;;;;;;;;;5015187;28;20461;-49
2023/04/04 07:39:58;;;;;;;15.17;6.37;;;;;;;;;;5014018;28;20411;-50
2023/04/04 07:42:25;;;;;;;8.83;6.43;;;;;;;;;;5011876;28;20402;-49
2023/04/04 07:44:51;;;;;;;10.30;6.47;;;;;;;;;;5006440;28;20436;-50
2023/04/04 07:47:18;;;;;;;6.73;6.00;;;;;;;;;;5007484;28;20453;-49
2023/04/04 07:49:44;;;;;;;6.50;5.90;;;;;;;;;;5014676;28;20466;-49
2023/04/04 07:52:10;;;;;;;11.27;6.00;;;;;;;;;;5014957;28;20471;-50
2023/04/04 07:54:36;;;;;;;7.87;4.60;;;;;;;;;;5019593;28;20825;-49
2023/04/04 07:57:05;;;;;;;6.27;4.80;;;;;;;;;;5014853;28;20434;-50
2023/04/04 07:59:32;;;;;;;6.03;5.03;;;;;;;;;;5014537;28;20411;-49
2023/04/04 08:01:58;;;;;;;8.67;6.73;;;;;;;;;;5013776;28;20843;-49
2023/04/04 08:04:24;;;;;;;8.83;4.83;;;;;;;;;;5007963;28;20409;-52
2023/04/04 08:06:50;;;;;;;6.77;5.40;;;;;;;;;;5013072;28;20527;-51
2023/04/04 08:09:16;;;;;;;6.03;4.90;;;;;;;;;;5014355;28;20457;-52
2023/04/04 08:11:42;;;;;;;3.63;3.30;;;;;;;;;;5014537;28;20414;-51
2023/04/04 08:14:10;;;;;;;5.40;3.50;;;;;;;;;;5014498;28;20438;-50
2023/04/04 08:16:37;;;;;;;5.80;4.03;;;;;;;;;;5011807;28;20447;-51
2023/04/04 08:19:03;;;;;;;5.10;4.30;;;;;;;;;;5013476;28;20455;-50
2023/04/04 08:21:29;;;;;;;4.63;2.80;;;;;;;;;;5014227;28;20895;-50
2023/04/04 08:23:55;;;;;;;4.57;3.47;;;;;;;;;;5014378;28;20389;-51
2023/04/04 08:26:22;;;;;;;5.40;2.60;;;;;;;;;;5014364;28;20420;-51
2023/04/04 08:28:49;;;;;;;5.17;2.30;;;;;;;;;;5014075;28;20778;-51
2023/04/04 08:31:15;;;;;;;3.00;2.40;;;;;;;;;;5005846;28;20401;-50
2023/04/04 08:33:41;;;;;;;4.27;2.80;;;;;;;;;;5013229;28;20399;-50
2023/04/04 08:36:07;;;;;;;4.33;3.27;;;;;;;;;;5014075;28;20489;-50
2023/04/04 08:38:33;;;;;;;3.33;2.97;;;;;;;;;;5013760;28;20411;-50
2023/04/04 08:41:00;;;;;;;4.97;3.60;;;;;;;;;;5011427;28;20393;-50
2023/04/04 08:43:26;;;;;;;3.30;2.60;;;;;;;;;;5009769;28;20482;-50
2023/04/04 08:45:53;;;;;;;4.27;3.23;;;;;;;;;;5011649;28;20427;-50
2023/04/04 08:48:22;;;;;;;6.00;3.13;;;;;;;;;;5013009;28;20409;-51
2023/04/04 08:50:50;;;;;;;3.67;2.97;;;;;;;;;;5012706;28;20877;-51
2023/04/04 08:53:16;;;;;;;6.90;3.60;;;;;;;;;;5013878;28;20410;-51
2023/04/04 08:55:43;;;;;;;5.57;3.10;;;;;;;;;;5012202;28;20445;-51
2023/04/04 08:58:09;;;;;;;6.10;3.90;;;;;;;;;;5012078;28;20408;-50
2023/04/04 09:00:35;;;;;;;4.63;3.10;;;;;;;;;;5013106;28;20420;-51
2023/04/04 09:03:14;;;;;;;5.73;3.47;;;;;;;;;;5013314;28;20781;-50
2023/04/04 09:05:40;;;;;;;3.77;3.07;;;;;;;;;;5012063;28;20925;-50
2023/04/04 09:08:08;;;;;;;5.10;3.07;;;;;;;;;;5016166;28;20545;-50
2023/04/04 09:10:36;;;;;;;3.30;2.90;;;;;;;;;;5013084;28;20809;-50
2023/04/04 09:13:02;;;;;;;3.20;2.90;;;;;;;;;;5013419;28;20418;-50
2023/04/04 09:15:28;;;;;;;7.53;3.37;;;;;;;;;;5010773;28;20442;-50
2023/04/04 09:17:54;;;;;;;3.83;2.83;;;;;;;;;;5006642;28;20413;-51
2023/04/04 09:20:34;;;;;;;7.00;3.60;;;;;;;;;;5013180;28;20405;-51
2023/04/04 09:23:00;;;;;;;5.00;2.90;;;;;;;;;;5011390;28;20468;-51
2023/04/04 09:25:27;;;;;;;3.63;3.10;;;;;;;;;;5013206;28;20435;-51
2023/04/04 09:27:54;;;;;;;3.30;3.03;;;;;;;;;;5012493;28;20396;-51
2023/04/04 09:30:21;;;;;;;6.87;2.60;;;;;;;;;;5011459;28;20494;-51
2023/04/04 09:32:47;;;;;;;2.97;2.67;;;;;;;;;;5004811;28;20416;-50
2023/04/04 09:35:14;;;;;;;4.30;2.90;;;;;;;;;;4999015;28;20450;-51
2023/04/04 09:37:41;;;;;;;5.17;2.80;;;;;;;;;;5012926;28;20441;-51
2023/04/04 09:40:10;;;;;;;4.63;2.80;;;;;;;;;;5012971;28;20544;-51
2023/04/04 09:42:35;;;;;;;4.07;2.73;;;;;;;;;;5013013;28;20410;-51
2023/04/04 09:45:02;;;;;;;8.57;5.30;;;;;;;;;;5006583;28;20450;-51
2023/04/04 09:47:29;;;;;;;3.33;3.03;;;;;;;;;;5012970;28;20940;-51
2023/04/04 09:49:58;;;;;;;6.03;3.23;;;;;;;;;;5012639;28;20442;-51
2023/04/04 09:52:25;;;;;;;3.40;3.10;;;;;;;;;;5012764;28;20745;-50
2023/04/04 09:54:57;;;;;;;4.23;2.93;;;;;;;;;;5012752;28;20401;-50
2023/04/04 09:57:34;;;;;;;3.53;3.10;;;;;;;;;;4999899;28;20900;-50
2023/04/04 10:00:00;;;;;;;3.23;2.70;;;;;;;;;;4994781;28;20439;-50
2023/04/04 10:02:30;;;;;;;3.43;2.77;;;;;;;;;;5012740;28;20869;-50
2023/04/04 10:04:56;;;;;;;8.67;4.03;;;;;;;;;;5012321;28;20399;-51
2023/04/04 10:07:25;;;;;;;8.07;3.37;;;;;;;;;;5012534;28;20867;-51
2023/04/04 10:09:51;;;;;;;3.23;2.30;;;;;;;;;;5012230;28;20471;-50
2023/04/04 10:12:20;;;;;;;4.33;2.77;;;;;;;;;;5012482;28;20418;-52
2023/04/04 10:14:46;;;;;;;4.17;3.23;;;;;;;;;;5012661;28;20945;-51
2023/04/04 10:17:12;;;;;;;5.60;2.83;;;;;;;;;;5012286;28;20515;-51
2023/04/04 10:19:39;;;;;;;3.90;2.87;;;;;;;;;;5012375;28;20409;-50
2023/04/04 10:22:05;;;;;;;2.47;2.27;;;;;;;;;;5012369;28;20418;-51
2023/04/04 10:24:31;;;;;;;2.87;2.43;;;;;;;;;;5012359;28;20428;-51
2023/04/04 10:26:57;;;;;;;2.23;2.00;;;;;;;;;;5008207;28;20456;-51
2023/04/04 10:29:24;;;;;;;2.43;2.23;;;;;;;;;;5005500;28;20867;-50
2023/04/04 10:31:54;;;;;;;2.50;2.30;;;;;;;;;;5011939;28;20788;-51
2023/04/04 10:34:24;;;;;;;2.50;2.30;;;;;;;;;;5003804;28;20767;-51
2023/04/04 10:36:57;;;;;;;8.67;2.90;;;;;;;;;;5000641;28;20443;-51
2023/04/04 10:39:29;;;;;;;2.90;2.70;;;;;;;;;;5010889;28;20409;-50
2023/04/04 10:41:55;;;;;;;3.60;2.60;;;;;;;;;;5011528;28;20412;-51
2023/04/04 10:44:38;;;;;;;6.03;2.50;;;;;;;;;;5011926;28;20503;-51
2023/04/04 10:47:08;;;;;;;3.53;2.50;;;;;;;;;;5010465;28;20431;-52
2023/04/04 10:49:35;;;;;;;2.70;2.47;;;;;;;;;;5011779;28;20460;-51
2023/04/04 10:52:01;;;;;;;2.40;2.20;;;;;;;;;;5011863;28;20423;-51
2023/04/04 10:54:28;;;;;;;4.27;2.30;;;;;;;;;;5011855;28;20391;-51
2023/04/04 10:56:59;;;;;;;2.57;2.37;;;;;;;;;;5011153;28;20942;-51
2023/04/04 10:59:25;;;;;;;3.63;2.27;;;;;;;;;;5005600;28;20424;-50
2023/04/04 11:02:01;;;;;;;2.50;2.30;;;;;;;;;;5004637;28;20507;-51
2023/04/04 11:04:36;;;;;;;2.60;2.40;;;;;;;;;;5011796;28;20387;-52
2023/04/04 11:07:17;;;;;;;3.00;2.40;;;;;;;;;;5011567;28;20870;-51
2023/04/04 11:09:54;;;;;;;3.73;2.67;;;;;;;;;;5011557;28;20463;-51
2023/04/04 11:12:32;;;;;;;3.00;2.03;;;;;;;;;;5011826;28;20463;-51
2023/04/04 11:15:10;;;;;;;6.20;2.50;;;;;;;;;;5009664;28;20922;-50
2023/04/04 11:17:42;;;;;;;2.17;2.00;;;;;;;;;;5007350;28;20775;-50
2023/04/04 11:20:14;;;;;;;2.90;2.13;;;;;;;;;;5006234;28;20414;-51
2023/04/04 11:22:44;;;;;;;2.43;2.20;;;;;;;;;;5011672;28;20439;-51
2023/04/04 11:25:32;;;;;;;7.53;2.50;;;;;;;;;;5011456;28;20852;-51
2023/04/04 11:27:58;;;;;;;6.63;2.63;;;;;;;;;;5011535;28;20418;-50
2023/04/04 11:30:27;;;;;;;3.10;2.40;;;;;;;;;;5011296;28;20968;-51
2023/04/04 11:32:56;;;;;;;3.60;2.70;;;;;;;;;;5011484;28;20446;-51
2023/04/04 11:35:22;;;;;;;2.70;2.50;;;;;;;;;;5011458;28;20823;-51
2023/04/04 11:37:52;;;;;;;3.17;2.60;;;;;;;;;;5011321;28;20404;-50
2023/04/04 11:40:18;;;;;;;5.83;3.20;;;;;;;;;;5003638;28;20775;-50
2023/04/04 11:42:44;;;;;;;3.20;2.67;;;;;;;;;;5009504;28;20417;-51
2023/04/04 11:45:17;;;;;;;3.00;2.53;;;;;;;;;;5011428;28;20949;-51
2023/04/04 11:47:46;;;;;;;2.60;2.40;;;;;;;;;;5009094;28;20439;-51
2023/04/04 11:50:14;;;;;;;2.90;2.30;;;;;;;;;;5005444;28;20958;-51
2023/04/04 11:52:44;;;;;;;4.20;2.60;;;;;;;;;;5014845;28;20425;-51
2023/04/04 11:55:18;;;;;;;2.60;2.40;;;;;;;;;;5014833;28;20442;-50
2023/04/04 11:57:46;;;;;;;3.17;2.87;;;;;;;;;;5015000;28;20428;-51
2023/04/04 12:00:27;;;;;;;1.93;1.83;;;;;;;;;;5014688;28;20414;-51
2023/04/04 12:02:54;;;;;;;5.10;2.57;;;;;;;;;;5012012;28;20439;-51
2023/04/04 12:07:53;;;;;;;3.10;2.80;;;;;;;;;;4973810;28;20482;-43
2023/04/04 12:10:21;;;;;;;3.63;2.37;;;;;;;;;;4974843;28;20466;-45
2023/04/04 12:12:47;;;;;;;3.60;2.50;;;;;;;;;;4975682;28;20415;-43
2023/04/04 12:15:13;;;;;;;4.53;2.57;;;;;;;;;;4975777;28;20416;-44
2023/04/04 12:17:41;;;;;;;3.33;2.83;;;;;;;;;;4982336;28;20816;-43
2023/04/04 12:20:09;;;;;;;2.60;2.40;;;;;;;;;;4984938;28;20435;-44
2023/04/04 12:22:35;;;;;;;3.60;2.70;;;;;;;;;;4986672;28;20487;-44
2023/04/04 12:25:01;;;;;;;3.97;2.50;;;;;;;;;;4985121;28;20849;-44
2023/04/04 12:27:28;;;;;;;3.23;2.70;;;;;;;;;;4986286;28;20953;-44
2023/04/04 12:29:55;;;;;;;4.60;2.87;;;;;;;;;;4986149;28;20680;-43
2023/04/04 12:32:21;;;;;;;2.70;2.40;;;;;;;;;;4981021;28;20419;-46
2023/04/04 12:34:47;;;;;;;3.93;2.97;;;;;;;;;;4986468;28;20506;-46
2023/04/04 12:37:15;;;;;;;2.87;2.20;;;;;;;;;;4984468;28;20518;-48
2023/04/04 12:39:49;;;;;;;8.63;3.23;;;;;;;;;;4984151;28;20400;-43
2023/04/04 12:42:22;;;;;;;5.57;3.17;;;;;;;;;;4975281;28;20416;-43
2023/04/04 12:44:50;;;;;;;2.67;2.47;;;;;;;;;;4983106;28;20410;-44
2023/04/04 12:47:19;;;;;;;2.40;2.03;;;;;;;;;;4981408;28;20786;-44
2023/04/04 12:49:47;;;;;;;3.17;2.53;;;;;;;;;;4974383;28;20440;-43
2023/04/04 12:52:18;;;;;;;2.93;2.63;;;;;;;;;;4989401;28;20420;-43
2023/04/04 12:54:45;;;;;;;5.03;2.53;;;;;;;;;;4986919;28;20410;-43
2023/04/04 12:57:13;;;;;;;2.53;2.30;;;;;;;;;;4981112;28;20476;-44
2023/04/04 12:59:39;;;;;;;2.93;2.30;;;;;;;;;;4980883;28;20864;-44
2023/04/04 13:02:10;;;;;;;2.90;2.70;;;;;;;;;;4981512;28;20465;-45
2023/04/04 13:04:36;;;;;;;6.20;2.63;;;;;;;;;;4982813;28;20419;-43
2023/04/04 13:07:03;;;;;;;3.70;2.50;;;;;;;;;;4984106;28;20457;-43
2023/04/04 13:09:29;;;;;;;4.07;2.90;;;;;;;;;;4985223;28;20499;-43
2023/04/04 13:11:59;;;;;;;3.87;2.73;;;;;;;;;;4985731;28;20387;-43
2023/04/04 13:14:48;;;;;;;2.53;2.37;;;;;;;;;;4980667;28;20385;-45
2023/04/04 13:17:14;;;;;;;3.57;2.70;;;;;;;;;;4975146;28;20445;-44
2023/04/04 13:19:40;;;;;;;2.97;2.67;;;;;;;;;;4982344;28;20515;-43
2023/04/04 13:22:08;;;;;;;5.93;3.10;;;;;;;;;;4982546;28;20519;-44
2023/04/04 13:24:33;;;;;;;3.33;3.00;;;;;;;;;;4982951;28;20382;-44
2023/04/04 13:27:00;;;;;;;5.90;2.80;;;;;;;;;;4982171;28;20452;-44
2023/04/04 13:29:26;;;;;;;3.13;2.80;;;;;;;;;;4981113;28;20467;-44
2023/04/04 13:31:52;;;;;;;2.77;2.27;;;;;;;;;;4982430;28;20439;-44
2023/04/04 13:34:18;;;;;;;2.50;2.30;;;;;;;;;;4982172;28;20905;-44
2023/04/04 13:36:45;;;;;;;5.40;3.43;;;;;;;;;;4986197;28;20414;-43
2023/04/04 13:39:11;;;;;;;3.87;2.60;;;;;;;;;;4976790;28;20420;-44
2023/04/04 13:41:37;;;;;;;3.57;2.90;;;;;;;;;;4985489;28;20413;-43
2023/04/04 13:44:03;;;;;;;4.30;3.07;;;;;;;;;;4982331;28;20406;-43
2023/04/04 13:46:29;;;;;;;3.20;2.90;;;;;;;;;;4981706;28;20990;-43
2023/04/04 13:48:55;;;;;;;3.37;2.77;;;;;;;;;;4982382;28;20763;-43
2023/04/04 13:51:23;;;;;;;3.73;3.17;;;;;;;;;;4981619;28;20431;-44
2023/04/04 13:53:49;;;;;;;3.23;2.70;;;;;;;;;;4985016;28;20479;-44
2023/04/04 13:56:15;;;;;;;3.17;2.97;;;;;;;;;;4978105;28;20434;-46
2023/04/04 13:58:41;;;;;;;5.73;3.27;;;;;;;;;;4977605;28;20876;-45
2023/04/04 14:01:08;;;;;;;3.30;2.80;;;;;;;;;;4989345;28;20969;-44
2023/04/04 14:03:34;;;;;;;3.57;3.27;;;;;;;;;;4982985;28;20462;-44
2023/04/04 14:06:00;;;;;;;4.10;3.03;;;;;;;;;;4982781;28;20452;-44
2023/04/04 14:08:26;;;;;;;4.93;2.70;;;;;;;;;;4983161;28;20422;-44
2023/04/04 14:10:52;;;;;;;2.90;2.40;;;;;;;;;;4982839;28;20502;-44
2023/04/04 14:13:18;;;;;;;3.27;2.67;;;;;;;;;;4977359;28;20414;-44
2023/04/04 14:15:45;;;;;;;2.70;2.50;;;;;;;;;;4984584;28;20515;-44
2023/04/04 14:18:11;;;;;;;3.07;2.73;;;;;;;;;;4980222;28;20875;-43
2023/04/04 14:20:37;;;;;;;3.23;2.93;;;;;;;;;;4980969;28;20463;-44
2023/04/04 14:23:04;;;;;;;6.20;2.70;;;;;;;;;;4983198;28;20476;-44
2023/04/04 14:25:30;;;;;;;2.93;2.73;;;;;;;;;;4975215;28;20411;-44
2023/04/04 14:27:56;;;;;;;8.03;2.83;;;;;;;;;;4981426;28;20418;-44
2023/04/04 14:30:22;;;;;;;4.70;3.20;;;;;;;;;;4981351;28;20463;-44
2023/04/04 14:32:49;;;;;;;3.60;2.90;;;;;;;;;;4986074;28;20890;-44
2023/04/04 14:35:16;;;;;;;4.07;2.97;;;;;;;;;;4972335;28;20547;-45
2023/04/04 14:37:42;;;;;;;2.90;2.70;;;;;;;;;;4979105;28;20400;-44
2023/04/04 14:40:08;;;;;;;3.13;2.70;;;;;;;;;;4981099;28;20437;-43
2023/04/04 14:42:34;;;;;;;3.37;2.97;;;;;;;;;;4981032;28;20414;-43
2023/04/04 14:45:03;;;;;;;7.43;3.33;;;;;;;;;;4982452;28;20476;-43